sensor_id;sensor_type;location;lat;lon;timestamp;P1;durP1;ratioP1;P2;durP2;ratioP2
9304;SDS011;4690;52.422;13.486;2023-02-28T00:05:54;5.50;;;4.87;;
9304;SDS011;4690;52.422;13.486;2023-02-28T00:08:19;7.07;;;5.27;;
9304;SDS011;4690;52.422;13.486;2023-02-28T00:10:45;7.27;;;5.37;;
9304;SDS011;4690;52.422;13.486;2023-02-28T00:13:11;7.30;;;5.50;;
9304;SDS011;4690;52.422;13.486;2023-02-28T00:15:37;5.93;;;5.23;;
9304;SDS011;4690;52.422;13.486;2023-02-28T00:18:02;7.27;;;5.27;;
9304;SDS011;4690;52.422;13.486;2023-02-28T00:20:28;7.30;;;5.40;;
9304;SDS011;4690;52.422;13.486;2023-02-28T00:22:54;6.43;;;5.30;;
9304;SDS011;4690;52.422;13.486;2023-02-28T00:25:23;7.27;;;5.50;;
9304;SDS011;4690;52.422;13.486;2023-02-28T00:27:50;6.57;;;4.93;;
9304;SDS011;4690;52.422;13.486;2023-02-28T00:30:17;7.43;;;5.07;;
9304;SDS011;4690;52.422;13.486;2023-02-28T00:32:47;7.27;;;5.60;;
9304;SDS011;4690;52.422;13.486;2023-02-28T00:35:13;6.70;;;5.00;;
9304;SDS011;4690;52.422;13.486;2023-02-28T00:37:40;5.63;;;4.90;;
9304;SDS011;4690;52.422;13.486;2023-02-28T00:40:07;6.63;;;5.20;;
9304;SDS011;4690;52.422;13.486;2023-02-28T00:42:35;5.90;;;5.30;;
9304;SDS011;4690;52.422;13.486;2023-02-28T00:45:00;5.80;;;4.73;;
9304;SDS011;4690;52.422;13.486;2023-02-28T00:47:29;5.73;;;5.07;;
9304;SDS011;4690;52.422;13.486;2023-02-28T00:49:56;7.60;;;4.97;;
9304;SDS011;4690;52.422;13.486;2023-02-28T00:52:21;5.90;;;4.97;;
9304;SDS011;4690;52.422;13.486;2023-02-28T00:54:47;6.57;;;4.63;;
9304;SDS011;4690;52.422;13.486;2023-02-28T00:57:13;7.37;;;5.23;;
9304;SDS011;4690;52.422;13.486;2023-02-28T00:59:39;6.33;;;5.30;;
9304;SDS011;4690;52.422;13.486;2023-02-28T01:02:04;6.77;;;4.93;;
9304;SDS011;4690;52.422;13.486;2023-02-28T01:04:30;7.43;;;5.03;;
9304;SDS011;4690;52.422;13.486;2023-02-28T01:06:56;6.53;;;5.33;;
9304;SDS011;4690;52.422;13.486;2023-02-28T01:09:22;5.70;;;4.93;;
9304;SDS011;4690;52.422;13.486;2023-02-28T01:11:47;5.60;;;5.00;;
9304;SDS011;4690;52.422;13.486;2023-02-28T01:14:14;5.80;;;4.50;;
9304;SDS011;4690;52.422;13.486;2023-02-28T01:16:42;6.77;;;5.00;;
9304;SDS011;4690;52.422;13.486;2023-02-28T01:19:08;6.07;;;4.57;;
9304;SDS011;4690;52.422;13.486;2023-02-28T01:21:35;6.33;;;4.77;;
9304;SDS011;4690;52.422;13.486;2023-02-28T01:24:01;6.10;;;4.73;;
9304;SDS011;4690;52.422;13.486;2023-02-28T01:26:28;5.90;;;4.50;;
9304;SDS011;4690;52.422;13.486;2023-02-28T01:28:55;6.90;;;4.60;;
9304;SDS011;4690;52.422;13.486;2023-02-28T01:31:21;5.17;;;4.63;;
9304;SDS011;4690;52.422;13.486;2023-02-28T01:33:47;5.80;;;4.80;;
9304;SDS011;4690;52.422;13.486;2023-02-28T01:36:15;5.93;;;4.90;;
9304;SDS011;4690;52.422;13.486;2023-02-28T01:38:46;6.20;;;4.53;;
9304;SDS011;4690;52.422;13.486;2023-02-28T01:41:20;5.27;;;4.40;;
9304;SDS011;4690;52.422;13.486;2023-02-28T01:43:57;5.73;;;4.80;;
9304;SDS011;4690;52.422;13.486;2023-02-28T01:46:49;6.87;;;5.00;;
9304;SDS011;4690;52.422;13.486;2023-02-28T01:49:15;5.47;;;4.67;;
9304;SDS011;4690;52.422;13.486;2023-02-28T01:51:44;5.43;;;4.73;;
9304;SDS011;4690;52.422;13.486;2023-02-28T01:54:23;5.73;;;4.70;;
9304;SDS011;4690;52.422;13.486;2023-02-28T01:57:03;6.20;;;4.93;;
9304;SDS011;4690;52.422;13.486;2023-02-28T02:02:16;6.33;;;4.70;;
9304;SDS011;4690;52.422;13.486;2023-02-28T02:05:08;5.33;;;4.80;;
9304;SDS011;4690;52.422;13.486;2023-02-28T02:07:37;7.07;;;4.83;;
9304;SDS011;4690;52.422;13.486;2023-02-28T02:25:24;6.40;;;5.10;;
9304;SDS011;4690;52.422;13.486;2023-02-28T02:28:22;6.60;;;5.20;;
9304;SDS011;4690;52.422;13.486;2023-02-28T02:40:03;9.20;;;6.00;;
9304;SDS011;4690;52.422;13.486;2023-02-28T02:45:50;7.00;;;6.00;;
9304;SDS011;4690;52.422;13.486;2023-02-28T02:48:27;7.13;;;5.87;;
9304;SDS011;4690;52.422;13.486;2023-02-28T02:51:00;7.50;;;6.07;;
9304;SDS011;4690;52.422;13.486;2023-02-28T02:53:37;7.90;;;6.00;;
9304;SDS011;4690;52.422;13.486;2023-02-28T02:56:15;7.77;;;6.23;;
9304;SDS011;4690;52.422;13.486;2023-02-28T02:58:49;8.00;;;5.90;;
9304;SDS011;4690;52.422;13.486;2023-02-28T03:01:18;7.33;;;6.33;;
9304;SDS011;4690;52.422;13.486;2023-02-28T03:03:56;7.80;;;6.37;;
9304;SDS011;4690;52.422;13.486;2023-02-28T03:06:27;8.53;;;7.07;;
9304;SDS011;4690;52.422;13.486;2023-02-28T03:08:53;7.80;;;6.30;;
9304;SDS011;4690;52.422;13.486;2023-02-28T03:11:19;8.60;;;6.70;;
9304;SDS011;4690;52.422;13.486;2023-02-28T03:28:00;9.10;;;7.30;;
9304;SDS011;4690;52.422;13.486;2023-02-28T03:31:05;8.53;;;6.97;;
9304;SDS011;4690;52.422;13.486;2023-02-28T03:33:48;7.57;;;6.57;;
9304;SDS011;4690;52.422;13.486;2023-02-28T03:36:34;7.20;;;6.50;;
9304;SDS011;4690;52.422;13.486;2023-02-28T03:39:09;8.00;;;6.83;;
9304;SDS011;4690;52.422;13.486;2023-02-28T03:42:00;9.03;;;7.43;;
9304;SDS011;4690;52.422;13.486;2023-02-28T03:44:41;9.77;;;7.57;;
9304;SDS011;4690;52.422;13.486;2023-02-28T03:47:15;8.07;;;7.27;;
9304;SDS011;4690;52.422;13.486;2023-02-28T03:49:53;8.33;;;7.00;;
9304;SDS011;4690;52.422;13.486;2023-02-28T03:52:34;8.93;;;7.57;;
9304;SDS011;4690;52.422;13.486;2023-02-28T03:55:10;8.60;;;7.53;;
9304;SDS011;4690;52.422;13.486;2023-02-28T03:57:50;9.40;;;7.40;;
9304;SDS011;4690;52.422;13.486;2023-02-28T04:00:46;11.20;;;8.10;;
9304;SDS011;4690;52.422;13.486;2023-02-28T04:03:20;9.80;;;7.73;;
9304;SDS011;4690;52.422;13.486;2023-02-28T04:05:51;9.27;;;7.60;;
9304;SDS011;4690;52.422;13.486;2023-02-28T04:08:20;10.40;;;7.80;;
9304;SDS011;4690;52.422;13.486;2023-02-28T04:11:12;11.10;;;8.30;;
9304;SDS011;4690;52.422;13.486;2023-02-28T04:13:48;10.27;;;8.07;;
9304;SDS011;4690;52.422;13.486;2023-02-28T04:16:14;9.07;;;8.00;;
9304;SDS011;4690;52.422;13.486;2023-02-28T04:18:43;9.60;;;8.20;;
9304;SDS011;4690;52.422;13.486;2023-02-28T04:21:09;9.87;;;8.37;;
9304;SDS011;4690;52.422;13.486;2023-02-28T04:23:36;9.77;;;8.00;;
9304;SDS011;4690;52.422;13.486;2023-02-28T04:26:03;9.57;;;8.13;;
9304;SDS011;4690;52.422;13.486;2023-02-28T04:28:29;10.23;;;7.90;;
9304;SDS011;4690;52.422;13.486;2023-02-28T04:30:55;9.43;;;8.10;;
9304;SDS011;4690;52.422;13.486;2023-02-28T04:33:23;8.70;;;7.67;;
9304;SDS011;4690;52.422;13.486;2023-02-28T04:35:57;8.53;;;7.60;;
9304;SDS011;4690;52.422;13.486;2023-02-28T04:38:25;8.37;;;7.47;;
9304;SDS011;4690;52.422;13.486;2023-02-28T04:40:50;9.33;;;7.07;;
9304;SDS011;4690;52.422;13.486;2023-02-28T04:43:16;9.67;;;7.87;;
9304;SDS011;4690;52.422;13.486;2023-02-28T04:45:42;7.80;;;7.00;;
9304;SDS011;4690;52.422;13.486;2023-02-28T04:48:08;8.57;;;7.67;;
9304;SDS011;4690;52.422;13.486;2023-02-28T04:50:33;9.13;;;7.47;;
9304;SDS011;4690;52.422;13.486;2023-02-28T04:52:59;9.87;;;7.77;;
9304;SDS011;4690;52.422;13.486;2023-02-28T04:55:25;8.30;;;7.03;;
9304;SDS011;4690;52.422;13.486;2023-02-28T04:57:50;8.73;;;7.20;;
9304;SDS011;4690;52.422;13.486;2023-02-28T05:00:16;8.50;;;7.60;;
9304;SDS011;4690;52.422;13.486;2023-02-28T05:02:42;8.20;;;7.13;;
9304;SDS011;4690;52.422;13.486;2023-02-28T05:05:08;7.87;;;7.07;;
9304;SDS011;4690;52.422;13.486;2023-02-28T05:07:34;9.57;;;7.90;;
9304;SDS011;4690;52.422;13.486;2023-02-28T05:10:00;8.87;;;7.97;;
9304;SDS011;4690;52.422;13.486;2023-02-28T05:12:25;8.67;;;7.60;;
9304;SDS011;4690;52.422;13.486;2023-02-28T05:14:51;8.70;;;7.63;;
9304;SDS011;4690;52.422;13.486;2023-02-28T05:17:17;8.53;;;7.53;;
9304;SDS011;4690;52.422;13.486;2023-02-28T05:19:42;9.80;;;8.20;;
9304;SDS011;4690;52.422;13.486;2023-02-28T05:22:14;9.97;;;8.33;;
9304;SDS011;4690;52.422;13.486;2023-02-28T05:24:41;10.17;;;8.57;;
9304;SDS011;4690;52.422;13.486;2023-02-28T05:27:07;9.73;;;7.97;;
9304;SDS011;4690;52.422;13.486;2023-02-28T05:29:34;11.90;;;8.70;;
9304;SDS011;4690;52.422;13.486;2023-02-28T05:32:06;10.33;;;8.70;;
9304;SDS011;4690;52.422;13.486;2023-02-28T05:34:35;11.40;;;9.00;;
9304;SDS011;4690;52.422;13.486;2023-02-28T05:37:06;9.47;;;8.30;;
9304;SDS011;4690;52.422;13.486;2023-02-28T05:39:37;8.60;;;7.70;;
9304;SDS011;4690;52.422;13.486;2023-02-28T05:42:03;9.50;;;8.50;;
9304;SDS011;4690;52.422;13.486;2023-02-28T05:44:30;10.83;;;8.77;;
9304;SDS011;4690;52.422;13.486;2023-02-28T05:46:55;10.53;;;8.80;;
9304;SDS011;4690;52.422;13.486;2023-02-28T05:49:21;10.87;;;8.60;;
9304;SDS011;4690;52.422;13.486;2023-02-28T05:51:47;9.03;;;8.07;;
9304;SDS011;4690;52.422;13.486;2023-02-28T05:54:13;11.20;;;9.20;;
9304;SDS011;4690;52.422;13.486;2023-02-28T05:56:38;11.50;;;8.30;;
9304;SDS011;4690;52.422;13.486;2023-02-28T05:59:06;10.60;;;9.00;;
9304;SDS011;4690;52.422;13.486;2023-02-28T06:04:04;9.77;;;8.27;;
9304;SDS011;4690;52.422;13.486;2023-02-28T06:06:34;10.37;;;8.83;;
9304;SDS011;4690;52.422;13.486;2023-02-28T06:09:01;11.27;;;9.37;;
9304;SDS011;4690;52.422;13.486;2023-02-28T06:11:30;10.07;;;8.77;;
9304;SDS011;4690;52.422;13.486;2023-02-28T06:13:57;10.03;;;8.97;;
9304;SDS011;4690;52.422;13.486;2023-02-28T06:16:28;10.47;;;8.73;;
9304;SDS011;4690;52.422;13.486;2023-02-28T06:18:59;9.80;;;8.50;;
9304;SDS011;4690;52.422;13.486;2023-02-28T06:21:27;10.37;;;8.90;;
9304;SDS011;4690;52.422;13.486;2023-02-28T06:23:55;10.33;;;8.70;;
9304;SDS011;4690;52.422;13.486;2023-02-28T06:26:22;11.10;;;8.83;;
9304;SDS011;4690;52.422;13.486;2023-02-28T06:28:49;9.60;;;8.37;;
9304;SDS011;4690;52.422;13.486;2023-02-28T06:31:15;11.17;;;9.03;;
9304;SDS011;4690;52.422;13.486;2023-02-28T06:33:43;11.57;;;9.00;;
9304;SDS011;4690;52.422;13.486;2023-02-28T06:36:10;11.23;;;9.20;;
9304;SDS011;4690;52.422;13.486;2023-02-28T06:38:38;12.40;;;10.17;;
9304;SDS011;4690;52.422;13.486;2023-02-28T06:41:06;12.53;;;9.87;;
9304;SDS011;4690;52.422;13.486;2023-02-28T06:43:34;11.87;;;9.60;;
9304;SDS011;4690;52.422;13.486;2023-02-28T06:46:04;13.63;;;10.50;;
9304;SDS011;4690;52.422;13.486;2023-02-28T06:48:32;10.90;;;8.90;;
9304;SDS011;4690;52.422;13.486;2023-02-28T06:51:17;11.23;;;9.17;;
9304;SDS011;4690;52.422;13.486;2023-02-28T06:53:47;11.23;;;8.57;;
9304;SDS011;4690;52.422;13.486;2023-02-28T06:56:13;11.43;;;8.27;;
9304;SDS011;4690;52.422;13.486;2023-02-28T06:58:42;10.60;;;8.43;;
9304;SDS011;4690;52.422;13.486;2023-02-28T07:01:13;11.37;;;8.77;;
9304;SDS011;4690;52.422;13.486;2023-02-28T07:03:39;13.90;;;9.20;;
9304;SDS011;4690;52.422;13.486;2023-02-28T07:06:05;11.67;;;8.90;;
9304;SDS011;4690;52.422;13.486;2023-02-28T07:08:32;8.57;;;7.67;;
9304;SDS011;4690;52.422;13.486;2023-02-28T07:10:59;10.90;;;8.43;;
9304;SDS011;4690;52.422;13.486;2023-02-28T07:13:25;12.97;;;9.10;;
9304;SDS011;4690;52.422;13.486;2023-02-28T07:15:55;11.23;;;8.40;;
9304;SDS011;4690;52.422;13.486;2023-02-28T07:18:26;10.03;;;7.10;;
9304;SDS011;4690;52.422;13.486;2023-02-28T07:20:53;11.37;;;7.90;;
9304;SDS011;4690;52.422;13.486;2023-02-28T07:23:19;11.97;;;7.93;;
9304;SDS011;4690;52.422;13.486;2023-02-28T07:25:44;9.33;;;7.67;;
9304;SDS011;4690;52.422;13.486;2023-02-28T07:28:12;11.57;;;8.00;;
9304;SDS011;4690;52.422;13.486;2023-02-28T07:30:39;9.67;;;7.83;;
9304;SDS011;4690;52.422;13.486;2023-02-28T07:33:06;10.57;;;8.30;;
9304;SDS011;4690;52.422;13.486;2023-02-28T07:35:32;10.60;;;8.13;;
9304;SDS011;4690;52.422;13.486;2023-02-28T07:37:58;11.50;;;9.03;;
9304;SDS011;4690;52.422;13.486;2023-02-28T07:40:24;9.83;;;8.60;;
9304;SDS011;4690;52.422;13.486;2023-02-28T07:42:51;12.10;;;9.47;;
9304;SDS011;4690;52.422;13.486;2023-02-28T07:45:17;12.33;;;8.67;;
9304;SDS011;4690;52.422;13.486;2023-02-28T07:47:44;11.80;;;8.63;;
9304;SDS011;4690;52.422;13.486;2023-02-28T07:50:11;11.33;;;8.43;;
9304;SDS011;4690;52.422;13.486;2023-02-28T07:52:41;11.50;;;7.97;;
9304;SDS011;4690;52.422;13.486;2023-02-28T07:55:07;10.90;;;7.13;;
9304;SDS011;4690;52.422;13.486;2023-02-28T07:57:34;10.40;;;7.83;;
9304;SDS011;4690;52.422;13.486;2023-02-28T08:00:00;8.20;;;5.97;;
9304;SDS011;4690;52.422;13.486;2023-02-28T08:02:29;8.33;;;6.10;;
9304;SDS011;4690;52.422;13.486;2023-02-28T08:04:55;10.10;;;6.00;;
9304;SDS011;4690;52.422;13.486;2023-02-28T08:07:21;9.53;;;5.77;;
9304;SDS011;4690;52.422;13.486;2023-02-28T08:09:47;11.53;;;6.27;;
9304;SDS011;4690;52.422;13.486;2023-02-28T08:12:13;9.80;;;6.50;;
9304;SDS011;4690;52.422;13.486;2023-02-28T08:14:39;8.63;;;6.13;;
9304;SDS011;4690;52.422;13.486;2023-02-28T08:17:05;10.07;;;6.53;;
9304;SDS011;4690;52.422;13.486;2023-02-28T08:19:31;8.97;;;6.00;;
9304;SDS011;4690;52.422;13.486;2023-02-28T08:21:57;8.70;;;6.27;;
9304;SDS011;4690;52.422;13.486;2023-02-28T08:24:23;12.37;;;6.67;;
9304;SDS011;4690;52.422;13.486;2023-02-28T08:26:49;11.73;;;5.83;;
9304;SDS011;4690;52.422;13.486;2023-02-28T08:29:15;10.30;;;6.47;;
9304;SDS011;4690;52.422;13.486;2023-02-28T08:31:40;8.83;;;6.30;;
9304;SDS011;4690;52.422;13.486;2023-02-28T08:34:12;12.60;;;5.47;;
9304;SDS011;4690;52.422;13.486;2023-02-28T08:36:40;6.50;;;5.50;;
9304;SDS011;4690;52.422;13.486;2023-02-28T08:39:07;6.97;;;5.00;;
9304;SDS011;4690;52.422;13.486;2023-02-28T08:41:34;7.33;;;4.90;;
9304;SDS011;4690;52.422;13.486;2023-02-28T08:44:00;6.57;;;5.13;;
9304;SDS011;4690;52.422;13.486;2023-02-28T08:46:26;5.93;;;4.60;;
9304;SDS011;4690;52.422;13.486;2023-02-28T08:48:53;5.70;;;4.60;;
9304;SDS011;4690;52.422;13.486;2023-02-28T08:51:21;7.23;;;5.20;;
9304;SDS011;4690;52.422;13.486;2023-02-28T08:54:00;6.93;;;4.80;;
9304;SDS011;4690;52.422;13.486;2023-02-28T08:56:26;6.27;;;4.13;;
9304;SDS011;4690;52.422;13.486;2023-02-28T08:58:54;4.23;;;3.83;;
9304;SDS011;4690;52.422;13.486;2023-02-28T09:01:22;5.07;;;3.73;;
9304;SDS011;4690;52.422;13.486;2023-02-28T09:03:52;5.50;;;3.60;;
9304;SDS011;4690;52.422;13.486;2023-02-28T09:06:20;4.57;;;3.70;;
9304;SDS011;4690;52.422;13.486;2023-02-28T09:08:49;5.90;;;3.23;;
9304;SDS011;4690;52.422;13.486;2023-02-28T09:11:16;5.37;;;3.40;;
9304;SDS011;4690;52.422;13.486;2023-02-28T09:13:43;3.70;;;3.13;;
9304;SDS011;4690;52.422;13.486;2023-02-28T09:16:11;4.17;;;3.23;;
9304;SDS011;4690;52.422;13.486;2023-02-28T09:18:40;5.60;;;3.60;;
9304;SDS011;4690;52.422;13.486;2023-02-28T09:21:06;5.13;;;3.30;;
9304;SDS011;4690;52.422;13.486;2023-02-28T09:23:39;4.27;;;3.20;;
9304;SDS011;4690;52.422;13.486;2023-02-28T09:26:06;6.40;;;4.00;;
9304;SDS011;4690;52.422;13.486;2023-02-28T09:28:32;6.93;;;3.67;;
9304;SDS011;4690;52.422;13.486;2023-02-28T09:30:58;4.53;;;3.33;;
9304;SDS011;4690;52.422;13.486;2023-02-28T09:33:24;4.20;;;3.50;;
9304;SDS011;4690;52.422;13.486;2023-02-28T09:35:53;3.90;;;2.73;;
9304;SDS011;4690;52.422;13.486;2023-02-28T09:38:25;3.80;;;2.90;;
9304;SDS011;4690;52.422;13.486;2023-02-28T09:40:53;3.27;;;2.80;;
9304;SDS011;4690;52.422;13.486;2023-02-28T09:43:38;3.33;;;2.50;;
9304;SDS011;4690;52.422;13.486;2023-02-28T09:49:06;3.90;;;2.10;;
9304;SDS011;4690;52.422;13.486;2023-02-28T09:54:19;2.90;;;2.60;;
9304;SDS011;4690;52.422;13.486;2023-02-28T09:59:50;4.23;;;2.90;;
9304;SDS011;4690;52.422;13.486;2023-02-28T10:05:24;2.30;;;2.00;;
9304;SDS011;4690;52.422;13.486;2023-02-28T10:10:42;4.50;;;2.23;;
9304;SDS011;4690;52.422;13.486;2023-02-28T10:13:29;4.63;;;2.60;;
9304;SDS011;4690;52.422;13.486;2023-02-28T10:16:16;2.73;;;2.30;;
9304;SDS011;4690;52.422;13.486;2023-02-28T10:18:50;2.43;;;2.23;;
9304;SDS011;4690;52.422;13.486;2023-02-28T10:27:17;3.00;;;2.70;;
9304;SDS011;4690;52.422;13.486;2023-02-28T10:29:57;3.80;;;2.80;;
9304;SDS011;4690;52.422;13.486;2023-02-28T10:32:28;3.40;;;2.67;;
9304;SDS011;4690;52.422;13.486;2023-02-28T10:37:45;3.27;;;2.63;;
9304;SDS011;4690;52.422;13.486;2023-02-28T10:42:56;2.97;;;2.67;;
9304;SDS011;4690;52.422;13.486;2023-02-28T10:45:25;2.80;;;2.40;;
9304;SDS011;4690;52.422;13.486;2023-02-28T10:47:59;3.20;;;2.80;;
9304;SDS011;4690;52.422;13.486;2023-02-28T10:50:54;4.87;;;2.80;;
9304;SDS011;4690;52.422;13.486;2023-02-28T10:59:02;3.67;;;2.83;;
9304;SDS011;4690;52.422;13.486;2023-02-28T11:01:52;3.37;;;2.70;;
9304;SDS011;4690;52.422;13.486;2023-02-28T11:09:45;5.77;;;2.60;;
9304;SDS011;4690;52.422;13.486;2023-02-28T11:12:48;2.70;;;2.50;;
9304;SDS011;4690;52.422;13.486;2023-02-28T11:15:20;3.33;;;2.37;;
9304;SDS011;4690;52.422;13.486;2023-02-28T11:20:36;3.00;;;2.43;;
9304;SDS011;4690;52.422;13.486;2023-02-28T11:23:04;2.77;;;2.33;;
9304;SDS011;4690;52.422;13.486;2023-02-28T11:25:39;4.40;;;3.10;;
9304;SDS011;4690;52.422;13.486;2023-02-28T11:28:05;5.77;;;2.70;;
9304;SDS011;4690;52.422;13.486;2023-02-28T11:33:45;4.37;;;2.77;;
9304;SDS011;4690;52.422;13.486;2023-02-28T11:38:47;2.93;;;2.60;;
9304;SDS011;4690;52.422;13.486;2023-02-28T11:46:54;3.90;;;3.00;;
9304;SDS011;4690;52.422;13.486;2023-02-28T11:49:35;3.93;;;3.27;;
9304;SDS011;4690;52.422;13.486;2023-02-28T11:55:17;4.33;;;2.90;;
9304;SDS011;4690;52.422;13.486;2023-02-28T12:01:18;5.50;;;3.20;;
9304;SDS011;4690;52.422;13.486;2023-02-28T12:28:02;4.53;;;3.00;;
9304;SDS011;4690;52.422;13.486;2023-02-28T12:30:33;3.17;;;2.87;;
9304;SDS011;4690;52.422;13.486;2023-02-28T12:33:09;3.83;;;3.10;;
9304;SDS011;4690;52.422;13.486;2023-02-28T12:35:44;3.50;;;3.03;;
9304;SDS011;4690;52.422;13.486;2023-02-28T12:43:32;4.67;;;3.30;;
9304;SDS011;4690;52.422;13.486;2023-02-28T12:46:19;4.23;;;3.40;;
9304;SDS011;4690;52.422;13.486;2023-02-28T12:48:57;4.50;;;3.37;;
9304;SDS011;4690;52.422;13.486;2023-02-28T12:51:30;3.90;;;3.03;;
9304;SDS011;4690;52.422;13.486;2023-02-28T12:59:27;4.20;;;3.40;;
9304;SDS011;4690;52.422;13.486;2023-02-28T13:11:28;3.33;;;3.03;;
9304;SDS011;4690;52.422;13.486;2023-02-28T13:14:02;4.03;;;3.53;;
9304;SDS011;4690;52.422;13.486;2023-02-28T13:19:27;6.47;;;3.20;;
9304;SDS011;4690;52.422;13.486;2023-02-28T13:21:57;4.33;;;3.23;;
9304;SDS011;4690;52.422;13.486;2023-02-28T13:29:44;3.93;;;3.00;;
9304;SDS011;4690;52.422;13.486;2023-02-28T13:55:43;3.67;;;3.03;;
9304;SDS011;4690;52.422;13.486;2023-02-28T14:01:52;3.90;;;2.70;;
9304;SDS011;4690;52.422;13.486;2023-02-28T14:05:05;4.13;;;3.23;;
9304;SDS011;4690;52.422;13.486;2023-02-28T14:07:44;4.60;;;3.10;;
9304;SDS011;4690;52.422;13.486;2023-02-28T14:12:58;4.63;;;3.00;;
9304;SDS011;4690;52.422;13.486;2023-02-28T14:16:20;5.30;;;3.30;;
9304;SDS011;4690;52.422;13.486;2023-02-28T14:18:34;6.10;;;3.60;;
9304;SDS011;4690;52.422;13.486;2023-02-28T14:21:09;4.37;;;3.40;;
9304;SDS011;4690;52.422;13.486;2023-02-28T14:36:04;3.97;;;3.30;;
9304;SDS011;4690;52.422;13.486;2023-02-28T14:39:00;4.43;;;3.50;;
9304;SDS011;4690;52.422;13.486;2023-02-28T14:41:37;3.63;;;2.87;;
9304;SDS011;4690;52.422;13.486;2023-02-28T14:44:39;4.63;;;3.40;;
9304;SDS011;4690;52.422;13.486;2023-02-28T14:46:59;3.43;;;3.13;;
9304;SDS011;4690;52.422;13.486;2023-02-28T14:49:37;4.93;;;3.17;;
9304;SDS011;4690;52.422;13.486;2023-02-28T14:54:46;4.73;;;3.43;;
9304;SDS011;4690;52.422;13.486;2023-02-28T14:57:24;3.73;;;3.30;;
9304;SDS011;4690;52.422;13.486;2023-02-28T15:00:01;4.43;;;3.40;;
9304;SDS011;4690;52.422;13.486;2023-02-28T15:02:41;5.20;;;3.57;;
9304;SDS011;4690;52.422;13.486;2023-02-28T15:07:45;4.70;;;3.73;;
9304;SDS011;4690;52.422;13.486;2023-02-28T15:10:21;4.87;;;3.80;;
9304;SDS011;4690;52.422;13.486;2023-02-28T15:12:54;4.13;;;3.43;;
9304;SDS011;4690;52.422;13.486;2023-02-28T15:15:24;6.40;;;3.77;;
9304;SDS011;4690;52.422;13.486;2023-02-28T15:18:32;4.80;;;4.00;;
9304;SDS011;4690;52.422;13.486;2023-02-28T15:21:18;4.23;;;3.80;;
9304;SDS011;4690;52.422;13.486;2023-02-28T15:23:49;5.80;;;3.90;;
9304;SDS011;4690;52.422;13.486;2023-02-28T15:26:28;5.57;;;3.70;;
9304;SDS011;4690;52.422;13.486;2023-02-28T15:29:02;5.57;;;4.00;;
9304;SDS011;4690;52.422;13.486;2023-02-28T15:31:40;4.43;;;3.73;;
9304;SDS011;4690;52.422;13.486;2023-02-28T15:34:21;5.23;;;3.57;;
9304;SDS011;4690;52.422;13.486;2023-02-28T15:36:54;4.47;;;3.57;;
9304;SDS011;4690;52.422;13.486;2023-02-28T15:39:21;5.57;;;4.07;;
9304;SDS011;4690;52.422;13.486;2023-02-28T15:42:09;5.67;;;3.80;;
9304;SDS011;4690;52.422;13.486;2023-02-28T15:44:45;5.60;;;3.70;;
9304;SDS011;4690;52.422;13.486;2023-02-28T15:47:19;4.73;;;3.80;;
9304;SDS011;4690;52.422;13.486;2023-02-28T15:52:42;4.27;;;3.67;;
9304;SDS011;4690;52.422;13.486;2023-02-28T15:55:20;5.80;;;3.97;;
9304;SDS011;4690;52.422;13.486;2023-02-28T15:57:53;4.73;;;3.57;;
9304;SDS011;4690;52.422;13.486;2023-02-28T16:00:24;5.10;;;3.77;;
9304;SDS011;4690;52.422;13.486;2023-02-28T16:02:53;3.90;;;3.47;;
9304;SDS011;4690;52.422;13.486;2023-02-28T16:05:21;6.00;;;3.80;;
9304;SDS011;4690;52.422;13.486;2023-02-28T16:08:01;4.30;;;3.37;;
9304;SDS011;4690;52.422;13.486;2023-02-28T16:10:39;4.80;;;3.43;;
9304;SDS011;4690;52.422;13.486;2023-02-28T16:13:05;4.70;;;3.50;;
9304;SDS011;4690;52.422;13.486;2023-02-28T16:15:35;4.97;;;3.50;;
9304;SDS011;4690;52.422;13.486;2023-02-28T16:18:07;5.33;;;3.90;;
9304;SDS011;4690;52.422;13.486;2023-02-28T16:20:37;4.23;;;3.83;;
9304;SDS011;4690;52.422;13.486;2023-02-28T16:23:04;4.97;;;3.60;;
9304;SDS011;4690;52.422;13.486;2023-02-28T16:25:34;4.17;;;3.67;;
9304;SDS011;4690;52.422;13.486;2023-02-28T16:28:03;3.90;;;3.50;;
9304;SDS011;4690;52.422;13.486;2023-02-28T16:30:38;6.43;;;3.67;;
9304;SDS011;4690;52.422;13.486;2023-02-28T16:33:03;4.43;;;3.73;;
9304;SDS011;4690;52.422;13.486;2023-02-28T16:35:29;6.93;;;3.83;;
9304;SDS011;4690;52.422;13.486;2023-02-28T16:37:55;5.40;;;3.80;;
9304;SDS011;4690;52.422;13.486;2023-02-28T16:40:22;5.27;;;3.80;;
9304;SDS011;4690;52.422;13.486;2023-02-28T16:42:51;6.03;;;3.77;;
9304;SDS011;4690;52.422;13.486;2023-02-28T16:45:25;4.70;;;3.80;;
9304;SDS011;4690;52.422;13.486;2023-02-28T16:47:54;5.07;;;4.57;;
9304;SDS011;4690;52.422;13.486;2023-02-28T16:50:22;6.13;;;4.87;;
9304;SDS011;4690;52.422;13.486;2023-02-28T16:52:51;5.43;;;4.37;;
9304;SDS011;4690;52.422;13.486;2023-02-28T16:55:19;7.13;;;4.10;;
9304;SDS011;4690;52.422;13.486;2023-02-28T16:57:56;6.40;;;4.20;;
9304;SDS011;4690;52.422;13.486;2023-02-28T17:00:24;7.40;;;4.83;;
9304;SDS011;4690;52.422;13.486;2023-02-28T17:02:53;6.30;;;4.93;;
9304;SDS011;4690;52.422;13.486;2023-02-28T17:05:20;6.07;;;4.40;;
9304;SDS011;4690;52.422;13.486;2023-02-28T17:07:47;5.33;;;4.50;;
9304;SDS011;4690;52.422;13.486;2023-02-28T17:10:16;6.77;;;4.50;;
9304;SDS011;4690;52.422;13.486;2023-02-28T17:12:45;7.90;;;5.13;;
9304;SDS011;4690;52.422;13.486;2023-02-28T17:15:11;7.10;;;5.03;;
9304;SDS011;4690;52.422;13.486;2023-02-28T17:17:40;9.47;;;6.43;;
9304;SDS011;4690;52.422;13.486;2023-02-28T17:20:16;8.43;;;6.90;;
9304;SDS011;4690;52.422;13.486;2023-02-28T17:22:47;7.97;;;6.77;;
9304;SDS011;4690;52.422;13.486;2023-02-28T17:25:15;8.87;;;6.97;;
9304;SDS011;4690;52.422;13.486;2023-02-28T17:27:41;8.23;;;6.70;;
9304;SDS011;4690;52.422;13.486;2023-02-28T17:30:13;9.37;;;6.80;;
9304;SDS011;4690;52.422;13.486;2023-02-28T17:32:45;10.37;;;7.00;;
9304;SDS011;4690;52.422;13.486;2023-02-28T17:35:11;9.63;;;7.03;;
9304;SDS011;4690;52.422;13.486;2023-02-28T17:37:38;8.30;;;7.10;;
9304;SDS011;4690;52.422;13.486;2023-02-28T17:40:04;8.23;;;6.47;;
9304;SDS011;4690;52.422;13.486;2023-02-28T17:42:37;10.77;;;7.20;;
9304;SDS011;4690;52.422;13.486;2023-02-28T17:45:03;12.10;;;7.70;;
9304;SDS011;4690;52.422;13.486;2023-02-28T17:47:29;9.10;;;6.90;;
9304;SDS011;4690;52.422;13.486;2023-02-28T17:49:54;11.73;;;7.53;;
9304;SDS011;4690;52.422;13.486;2023-02-28T17:52:20;8.63;;;7.60;;
9304;SDS011;4690;52.422;13.486;2023-02-28T17:54:47;10.67;;;7.40;;
9304;SDS011;4690;52.422;13.486;2023-02-28T17:57:16;10.53;;;7.37;;
9304;SDS011;4690;52.422;13.486;2023-02-28T17:59:41;8.60;;;7.60;;
9304;SDS011;4690;52.422;13.486;2023-02-28T18:02:08;9.97;;;7.97;;
9304;SDS011;4690;52.422;13.486;2023-02-28T18:04:37;9.27;;;7.00;;
9304;SDS011;4690;52.422;13.486;2023-02-28T18:07:03;9.50;;;7.80;;
9304;SDS011;4690;52.422;13.486;2023-02-28T18:09:32;9.07;;;7.10;;
9304;SDS011;4690;52.422;13.486;2023-02-28T18:11:57;8.20;;;7.10;;
9304;SDS011;4690;52.422;13.486;2023-02-28T18:14:24;10.03;;;8.10;;
9304;SDS011;4690;52.422;13.486;2023-02-28T18:16:51;10.77;;;7.43;;
9304;SDS011;4690;52.422;13.486;2023-02-28T18:19:19;8.53;;;7.23;;
9304;SDS011;4690;52.422;13.486;2023-02-28T18:21:46;9.03;;;7.97;;
9304;SDS011;4690;52.422;13.486;2023-02-28T18:24:18;9.23;;;7.93;;
9304;SDS011;4690;52.422;13.486;2023-02-28T18:26:46;9.83;;;7.83;;
9304;SDS011;4690;52.422;13.486;2023-02-28T18:29:30;10.73;;;9.07;;
9304;SDS011;4690;52.422;13.486;2023-02-28T18:31:57;9.60;;;8.07;;
9304;SDS011;4690;52.422;13.486;2023-02-28T18:34:26;9.27;;;8.03;;
9304;SDS011;4690;52.422;13.486;2023-02-28T18:36:52;8.43;;;7.53;;
9304;SDS011;4690;52.422;13.486;2023-02-28T18:39:18;10.57;;;8.90;;
9304;SDS011;4690;52.422;13.486;2023-02-28T18:41:44;9.57;;;8.37;;
9304;SDS011;4690;52.422;13.486;2023-02-28T18:44:10;11.20;;;8.93;;
9304;SDS011;4690;52.422;13.486;2023-02-28T18:46:38;12.73;;;9.10;;
9304;SDS011;4690;52.422;13.486;2023-02-28T18:49:04;12.53;;;9.27;;
9304;SDS011;4690;52.422;13.486;2023-02-28T18:51:30;12.70;;;9.30;;